createdAt,value
2023-01-28T00:01:14.253Z,2.22
2023-01-28T00:03:43.744Z,2.29
2023-01-28T00:06:15.120Z,2.31
2023-01-28T00:08:44.289Z,2.33
2023-01-28T00:11:14.683Z,2.30
2023-01-28T00:13:43.377Z,2.51
2023-01-28T00:16:13.809Z,2.60
2023-01-28T00:18:42.871Z,2.40
2023-01-28T00:21:13.173Z,2.43
2023-01-28T00:23:43.159Z,2.48
2023-01-28T00:26:13.589Z,2.44
2023-01-28T00:28:44.900Z,2.08
2023-01-28T00:31:18.360Z,1.90
2023-01-28T00:33:48.711Z,1.87
2023-01-28T00:36:17.520Z,1.96
2023-01-28T00:38:51.409Z,2.13
2023-01-28T00:41:22.700Z,1.82
2023-01-28T00:43:53.648Z,2.00
2023-01-28T00:46:25.438Z,2.32
2023-01-28T00:48:54.974Z,2.16
2023-01-28T00:51:24.109Z,2.13
2023-01-28T00:53:54.085Z,2.07
2023-01-28T00:56:23.128Z,1.67
2023-01-28T00:58:52.352Z,2.03
2023-01-28T01:01:25.625Z,2.38
2023-01-28T01:04:02.752Z,2.24
2023-01-28T01:06:35.434Z,2.03
2023-01-28T01:09:08.339Z,1.88
2023-01-28T01:11:37.974Z,2.31
2023-01-28T01:14:07.301Z,1.97
2023-01-28T01:16:38.910Z,1.82
2023-01-28T01:19:09.560Z,2.21
2023-01-28T01:21:38.684Z,2.32
2023-01-28T01:24:08.374Z,2.49
2023-01-28T01:26:37.476Z,2.43
2023-01-28T01:29:06.535Z,2.45
2023-01-28T01:31:37.286Z,2.65
2023-01-28T01:34:06.364Z,2.31
2023-01-28T01:36:36.037Z,2.02
2023-01-28T01:39:05.166Z,1.77
2023-01-28T01:41:34.673Z,1.96
2023-01-28T01:44:05.043Z,2.17
2023-01-28T01:46:38.100Z,2.25
2023-01-28T01:49:15.804Z,1.77
2023-01-28T01:51:45.467Z,1.89
2023-01-28T01:54:15.096Z,2.16
2023-01-28T01:56:45.333Z,2.18
2023-01-28T01:59:14.663Z,2.29
2023-01-28T02:01:45.825Z,1.86
2023-01-28T02:04:18.881Z,1.99
2023-01-28T02:06:48.387Z,1.95
2023-01-28T02:09:26.214Z,2.20
2023-01-28T02:11:57.944Z,2.20
2023-01-28T02:14:31.409Z,2.19
2023-01-28T02:17:02.952Z,2.20
2023-01-28T02:19:37.666Z,2.30
2023-01-28T02:22:19.609Z,2.14
2023-01-28T02:25:27.297Z,2.09
2023-01-28T02:28:16.849Z,2.24
2023-01-28T02:30:52.332Z,2.18
2023-01-28T02:33:31.670Z,2.27
2023-01-28T02:36:07.293Z,2.06
2023-01-28T02:38:40.179Z,2.02
2023-01-28T02:41:12.955Z,1.97
2023-01-28T02:43:44.956Z,1.96
2023-01-28T02:46:37.120Z,2.12
2023-01-28T02:49:08.913Z,2.06
2023-01-28T02:52:00.238Z,2.05
2023-01-28T02:54:38.807Z,2.04
2023-01-28T02:57:15.291Z,2.07
2023-01-28T02:59:51.170Z,2.15
2023-01-28T03:02:24.542Z,2.29
2023-01-28T03:04:56.077Z,2.21
2023-01-28T03:07:25.788Z,2.33
2023-01-28T03:09:58.967Z,2.58
2023-01-28T03:12:47.344Z,2.51
2023-01-28T03:15:37.301Z,2.41
2023-01-28T03:18:27.444Z,2.48
2023-01-28T03:21:18.448Z,2.44
2023-01-28T03:24:09.083Z,2.42
2023-01-28T03:27:02.010Z,2.47
2023-01-28T03:29:50.698Z,2.49
2023-01-28T03:32:40.511Z,2.43
2023-01-28T03:35:28.163Z,2.51
2023-01-28T03:38:00.149Z,2.50
2023-01-28T03:40:30.516Z,2.46
2023-01-28T03:43:00.940Z,2.01
2023-01-28T03:45:37.469Z,2.04
2023-01-28T03:48:08.975Z,2.07
2023-01-28T03:50:38.164Z,2.00
2023-01-28T03:53:16.405Z,2.18
2023-01-28T03:55:54.529Z,1.85
2023-01-28T03:58:27.368Z,2.18
2023-01-28T04:00:56.858Z,2.22
2023-01-28T04:03:27.401Z,1.78
2023-01-28T04:06:01.651Z,1.91
2023-01-28T04:08:53.196Z,1.74
2023-01-28T04:11:48.630Z,1.59
2023-01-28T04:14:24.257Z,1.91
2023-01-28T04:16:56.892Z,1.95
2023-01-28T04:19:31.207Z,2.04
2023-01-28T04:22:00.438Z,1.95
2023-01-28T04:24:31.737Z,2.24
2023-01-28T04:27:00.979Z,2.21
2023-01-28T04:29:30.076Z,2.55
2023-01-28T04:32:04.062Z,2.53
2023-01-28T04:34:47.588Z,2.56
2023-01-28T04:37:48.944Z,2.26
2023-01-28T04:40:50.354Z,2.17
2023-01-28T04:43:28.169Z,2.12
2023-01-28T04:46:35.924Z,2.03
2023-01-28T04:49:15.463Z,2.25
2023-01-28T04:52:06.620Z,2.40
2023-01-28T04:54:56.004Z,2.12
2023-01-28T04:57:25.853Z,2.51
2023-01-28T04:59:55.034Z,2.15
2023-01-28T05:02:24.146Z,1.71
2023-01-28T05:04:54.353Z,1.64
2023-01-28T05:07:52.734Z,2.06
2023-01-28T05:10:22.703Z,1.96
2023-01-28T05:12:51.793Z,1.69
2023-01-28T05:15:21.969Z,1.51
2023-01-28T05:17:56.700Z,1.63
2023-01-28T05:20:26.409Z,1.11
2023-01-28T05:22:59.418Z,1.27
2023-01-28T05:25:38.257Z,1.47
2023-01-28T05:28:07.580Z,1.72
2023-01-28T05:30:36.720Z,1.78
2023-01-28T05:33:05.896Z,1.38
2023-01-28T05:35:36.518Z,1.54
2023-01-28T05:38:07.178Z,1.43
2023-01-28T05:40:35.481Z,1.44
2023-01-28T05:43:05.122Z,1.50
2023-01-28T05:45:47.789Z,1.87
2023-01-28T05:48:25.458Z,1.65
2023-01-28T05:51:12.992Z,1.98
2023-01-28T05:53:48.436Z,2.00
2023-01-28T05:56:18.203Z,1.70
2023-01-28T05:58:47.056Z,1.69
2023-01-28T06:01:16.156Z,1.59
2023-01-28T06:03:51.854Z,1.63
2023-01-28T06:06:21.112Z,1.66
2023-01-28T06:08:53.072Z,1.55
2023-01-28T06:11:28.183Z,1.66
2023-01-28T06:14:00.883Z,1.68
2023-01-28T06:16:53.324Z,1.65
2023-01-28T06:19:28.647Z,1.98
2023-01-28T06:21:57.760Z,1.65
2023-01-28T06:24:28.235Z,1.71
2023-01-28T06:26:57.408Z,1.51
2023-01-28T06:29:26.569Z,1.66
2023-01-28T06:31:55.495Z,1.64
2023-01-28T06:34:24.668Z,1.60
2023-01-28T06:36:54.430Z,1.67
2023-01-28T06:39:23.604Z,1.61
2023-01-28T06:41:54.525Z,1.52
2023-01-28T06:44:23.835Z,1.76
2023-01-28T06:46:52.730Z,1.67
2023-01-28T06:49:22.171Z,1.94
2023-01-28T06:51:51.958Z,1.72
2023-01-28T06:54:21.093Z,2.09
2023-01-28T06:56:50.173Z,1.79
2023-01-28T06:59:20.854Z,2.11
2023-01-28T07:01:49.573Z,2.40
2023-01-28T07:04:18.748Z,2.01
2023-01-28T07:06:47.785Z,2.24
2023-01-28T07:09:16.932Z,2.11
2023-01-28T07:11:46.793Z,2.19
2023-01-28T07:14:15.904Z,1.94
2023-01-28T07:16:46.004Z,2.01
2023-01-28T07:19:15.379Z,1.87
2023-01-28T07:21:44.547Z,2.33
2023-01-28T07:24:13.806Z,2.26
2023-01-28T07:26:43.048Z,2.26
2023-01-28T07:29:12.231Z,1.91
2023-01-28T07:31:41.068Z,1.86
2023-01-28T07:34:12.346Z,1.98
2023-01-28T07:36:41.396Z,1.68
2023-01-28T07:39:10.494Z,1.72
2023-01-28T07:41:39.570Z,1.69
2023-01-28T07:44:09.464Z,2.09
2023-01-28T07:46:38.130Z,1.83
2023-01-28T07:49:07.142Z,2.11
2023-01-28T07:51:37.652Z,2.22
2023-01-28T07:54:06.944Z,2.00
2023-01-28T07:56:36.004Z,2.04
2023-01-28T07:59:05.149Z,1.77
2023-01-28T08:01:34.137Z,2.01
2023-01-28T08:04:04.577Z,1.73
2023-01-28T08:06:38.116Z,1.47
2023-01-28T08:09:09.460Z,1.55
2023-01-28T08:11:40.400Z,1.93
2023-01-28T08:14:09.596Z,1.87
2023-01-28T08:16:38.338Z,1.83
2023-01-28T08:19:07.640Z,2.05
2023-01-28T08:21:37.008Z,2.23
2023-01-28T08:24:06.938Z,2.32
2023-01-28T08:26:37.440Z,1.71
2023-01-28T08:29:06.645Z,1.86
2023-01-28T08:31:35.404Z,1.81
2023-01-28T08:34:04.568Z,2.05
2023-01-28T08:36:33.705Z,2.05
2023-01-28T08:39:02.874Z,2.21
2023-01-28T08:41:32.238Z,2.46
2023-01-28T08:44:02.763Z,2.20
2023-01-28T08:46:31.496Z,2.53
2023-01-28T08:49:00.649Z,2.66
2023-01-28T08:51:29.891Z,2.30
2023-01-28T08:53:59.058Z,2.31
2023-01-28T08:56:28.161Z,2.27
2023-01-28T08:58:56.844Z,2.12
2023-01-28T09:01:29.584Z,2.75
2023-01-28T09:03:58.865Z,2.46
2023-01-28T09:06:27.801Z,2.48
2023-01-28T09:08:58.485Z,2.60
2023-01-28T09:11:27.778Z,2.56
2023-01-28T09:13:58.361Z,2.47
2023-01-28T09:16:29.078Z,2.76
2023-01-28T09:18:58.830Z,2.67
2023-01-28T09:21:28.071Z,2.68
2023-01-28T09:23:58.581Z,2.50
2023-01-28T09:26:27.749Z,2.51
2023-01-28T09:28:56.474Z,2.17
2023-01-28T09:31:26.127Z,1.93
2023-01-28T09:33:57.418Z,2.58
2023-01-28T09:36:26.582Z,2.02
2023-01-28T09:38:55.592Z,2.00
2023-01-28T09:41:29.735Z,2.45
2023-01-28T09:44:12.230Z,2.77
2023-01-28T09:46:43.004Z,1.90
2023-01-28T09:49:20.989Z,1.81
2023-01-28T09:51:52.898Z,1.82
2023-01-28T09:54:31.662Z,2.15
2023-01-28T09:57:05.733Z,2.07
2023-01-28T09:59:37.391Z,2.19
2023-01-28T10:02:22.125Z,2.31
2023-01-28T10:05:00.617Z,2.43
2023-01-28T10:07:36.677Z,2.42
2023-01-28T10:10:12.726Z,2.40
2023-01-28T10:12:56.731Z,2.45
2023-01-28T10:15:51.298Z,2.62
2023-01-28T10:18:27.579Z,2.35
2023-01-28T10:21:05.333Z,2.18
2023-01-28T10:23:41.471Z,2.26
2023-01-28T10:26:18.777Z,2.35
2023-01-28T10:28:49.601Z,2.45
2023-01-28T10:31:18.671Z,2.54
2023-01-28T10:33:47.665Z,2.18
2023-01-28T10:36:18.989Z,1.96
2023-01-28T10:38:48.139Z,2.12
2023-01-28T10:41:22.209Z,2.23
2023-01-28T10:43:51.476Z,2.10
2023-01-28T10:46:22.648Z,1.75
2023-01-28T10:48:58.233Z,1.97
2023-01-28T10:51:36.607Z,2.25
2023-01-28T10:54:16.348Z,2.40
2023-01-28T10:56:45.820Z,2.30
2023-01-28T10:59:22.780Z,2.56
2023-01-28T11:01:53.969Z,2.21
2023-01-28T11:04:26.403Z,2.41
2023-01-28T11:07:02.532Z,2.41
2023-01-28T11:09:33.075Z,2.50
2023-01-28T11:12:13.279Z,2.66
2023-01-28T11:14:51.688Z,2.72
2023-01-28T11:17:23.121Z,2.71
2023-01-28T11:19:53.710Z,2.63
2023-01-28T11:22:33.195Z,2.78
2023-01-28T11:25:03.308Z,3.28
2023-01-28T11:27:33.457Z,2.46
2023-01-28T11:30:04.416Z,2.55
2023-01-28T11:32:33.532Z,2.63
2023-01-28T11:35:02.571Z,2.59
2023-01-28T11:37:32.655Z,2.65
2023-01-28T11:40:11.870Z,2.79
2023-01-28T11:42:41.096Z,2.77
2023-01-28T11:45:16.716Z,2.64
2023-01-28T11:47:57.887Z,2.66
2023-01-28T11:50:35.428Z,2.53
2023-01-28T11:53:17.184Z,2.70
2023-01-28T11:55:54.781Z,2.59
2023-01-28T11:58:27.124Z,2.56
2023-01-28T12:01:04.111Z,2.64
2023-01-28T12:03:44.010Z,2.53
2023-01-28T12:06:30.105Z,2.53
2023-01-28T12:09:09.881Z,2.66
2023-01-28T12:12:04.942Z,2.55
2023-01-28T12:14:38.903Z,2.51
2023-01-28T12:17:17.706Z,2.43
2023-01-28T12:19:58.095Z,2.39
2023-01-28T12:22:44.178Z,2.37
2023-01-28T12:25:23.938Z,2.33
2023-01-28T12:28:01.579Z,2.56
2023-01-28T12:30:39.296Z,2.58
2023-01-28T12:33:30.199Z,2.60
2023-01-28T12:36:07.382Z,2.59
2023-01-28T12:38:46.057Z,2.54
2023-01-28T12:41:18.335Z,2.29
2023-01-28T12:43:55.545Z,2.44
2023-01-28T12:46:30.928Z,2.49
2023-01-28T12:49:03.674Z,2.30
2023-01-28T12:51:37.629Z,2.56
2023-01-28T12:54:11.897Z,2.33
2023-01-28T12:56:45.432Z,2.38
2023-01-28T12:59:16.965Z,2.12
2023-01-28T13:01:51.559Z,2.11
2023-01-28T13:04:33.275Z,2.22
2023-01-28T13:07:04.451Z,2.35
2023-01-28T13:09:36.281Z,2.82
2023-01-28T13:12:07.641Z,2.91
2023-01-28T13:14:37.217Z,2.44
2023-01-28T13:17:12.768Z,2.24
2023-01-28T13:19:44.080Z,2.13
2023-01-28T13:22:20.292Z,1.81
2023-01-28T13:24:49.373Z,1.90
2023-01-28T13:27:25.800Z,1.96
2023-01-28T13:30:08.001Z,2.22
2023-01-28T13:32:37.886Z,2.45
2023-01-28T13:35:08.876Z,2.54
2023-01-28T13:37:40.499Z,2.49
2023-01-28T13:40:24.975Z,2.62
2023-01-28T13:43:04.527Z,2.30
2023-01-28T13:45:34.242Z,2.81
2023-01-28T13:48:15.239Z,2.84
2023-01-28T13:50:45.234Z,2.92
2023-01-28T13:53:30.410Z,2.60
2023-01-28T13:56:00.704Z,2.35
2023-01-28T13:59:08.381Z,2.37
2023-01-28T14:02:13.080Z,2.37
2023-01-28T14:05:26.485Z,2.22
2023-01-28T14:08:52.286Z,2.09
2023-01-28T14:11:35.606Z,2.13
2023-01-28T14:14:29.076Z,2.17
2023-01-28T14:17:00.217Z,2.04
2023-01-28T14:19:32.327Z,2.22
2023-01-28T14:22:07.739Z,2.14
2023-01-28T14:24:38.857Z,1.98
2023-01-28T14:27:12.562Z,1.98
2023-01-28T14:29:57.368Z,2.15
2023-01-28T14:32:29.314Z,2.07
2023-01-28T14:35:00.305Z,2.01
2023-01-28T14:37:32.250Z,1.87
2023-01-28T14:40:02.825Z,1.61
2023-01-28T14:42:33.469Z,1.72
2023-01-28T14:45:27.468Z,1.75
2023-01-28T14:48:15.315Z,1.75
2023-01-28T14:50:57.567Z,1.69
2023-01-28T14:54:01.995Z,1.87
2023-01-28T14:56:40.853Z,1.79
2023-01-28T14:59:17.075Z,1.86
2023-01-28T15:01:48.511Z,2.03
2023-01-28T15:04:25.493Z,1.97
2023-01-28T15:06:54.949Z,1.89
2023-01-28T15:09:24.795Z,1.86
2023-01-28T15:11:57.344Z,1.89
2023-01-28T15:14:29.197Z,1.79
2023-01-28T15:16:59.775Z,1.79
2023-01-28T15:19:30.840Z,1.66
2023-01-28T15:22:01.619Z,1.72
2023-01-28T15:24:30.842Z,1.44
2023-01-28T15:26:59.890Z,1.46
2023-01-28T15:29:35.173Z,1.61
2023-01-28T15:32:07.258Z,1.58
2023-01-28T15:34:38.212Z,1.50
2023-01-28T15:37:07.340Z,1.58
2023-01-28T15:39:36.577Z,1.41
2023-01-28T15:42:07.911Z,1.53
2023-01-28T15:44:39.280Z,1.31
2023-01-28T15:47:18.183Z,1.44
2023-01-28T15:49:48.913Z,1.51
2023-01-28T15:52:18.135Z,1.60
2023-01-28T15:54:50.409Z,1.64
2023-01-28T15:57:21.049Z,1.72
2023-01-28T15:59:52.144Z,1.67
2023-01-28T16:02:24.389Z,1.61
2023-01-28T16:05:00.527Z,1.76
2023-01-28T16:07:31.155Z,1.72
2023-01-28T16:10:02.731Z,1.74
2023-01-28T16:12:31.809Z,1.82
2023-01-28T16:15:02.713Z,1.75
2023-01-28T16:17:37.522Z,1.66
2023-01-28T16:20:08.398Z,1.49
2023-01-28T16:22:38.523Z,1.62
2023-01-28T16:25:27.932Z,1.69
2023-01-28T16:27:58.065Z,1.59
2023-01-28T16:30:26.944Z,1.72
2023-01-28T16:32:58.379Z,1.58
2023-01-28T16:35:42.525Z,1.53
2023-01-28T16:38:18.110Z,1.45
2023-01-28T16:40:48.158Z,1.40
2023-01-28T16:43:18.151Z,1.24
2023-01-28T16:45:47.769Z,1.45
2023-01-28T16:48:18.362Z,1.53
2023-01-28T16:50:47.633Z,1.43
2023-01-28T16:53:21.225Z,1.53
2023-01-28T16:55:51.842Z,1.80
2023-01-28T16:58:24.282Z,1.65
2023-01-28T17:00:53.440Z,1.52
2023-01-28T17:03:23.961Z,1.70
2023-01-28T17:05:53.107Z,1.64
2023-01-28T17:08:22.175Z,1.58
2023-01-28T17:10:53.964Z,1.74
2023-01-28T17:13:23.481Z,1.72
2023-01-28T17:15:52.938Z,1.73
2023-01-28T17:18:23.815Z,1.64
2023-01-28T17:20:52.862Z,1.42
2023-01-28T17:23:24.311Z,1.55
2023-01-28T17:25:52.971Z,1.38
2023-01-28T17:28:22.272Z,1.46
2023-01-28T17:30:51.528Z,1.42
2023-01-28T17:33:20.621Z,1.51
2023-01-28T17:35:51.200Z,1.32
2023-01-28T17:38:20.301Z,1.26
2023-01-28T17:40:49.188Z,1.42
2023-01-28T17:43:18.276Z,1.50
2023-01-28T17:45:47.454Z,1.51
2023-01-28T17:48:16.565Z,1.54
2023-01-28T17:50:45.727Z,1.41
2023-01-28T17:53:16.285Z,1.64
2023-01-28T17:55:44.791Z,1.07
2023-01-28T17:58:13.835Z,1.08
2023-01-28T18:00:43.103Z,1.22
2023-01-28T18:03:12.550Z,1.39
2023-01-28T18:05:41.752Z,1.28
2023-01-28T18:08:11.011Z,1.27
2023-01-28T18:10:44.656Z,1.15
2023-01-28T18:13:14.027Z,1.24
2023-01-28T18:15:43.405Z,1.26
2023-01-28T18:18:13.013Z,1.27
2023-01-28T18:20:42.148Z,1.36
2023-01-28T18:23:11.306Z,1.39
2023-01-28T18:25:41.542Z,1.30
2023-01-28T18:28:11.070Z,1.20
2023-01-28T18:30:40.199Z,1.15
2023-01-28T18:33:09.431Z,1.44
2023-01-28T18:35:43.108Z,1.57
2023-01-28T18:38:12.574Z,1.27
2023-01-28T18:40:46.180Z,1.36
2023-01-28T18:43:15.907Z,1.36
2023-01-28T18:45:49.429Z,1.21
2023-01-28T18:48:18.969Z,1.07
2023-01-28T18:50:51.751Z,0.90
2023-01-28T18:53:20.984Z,0.67
2023-01-28T18:55:52.046Z,0.92
2023-01-28T18:58:21.411Z,1.04
2023-01-28T19:00:50.524Z,1.29
2023-01-28T19:03:19.804Z,1.35
2023-01-28T19:05:48.952Z,0.92
2023-01-28T19:08:18.605Z,0.87
2023-01-28T19:10:47.340Z,0.94
2023-01-28T19:13:18.099Z,0.91
2023-01-28T19:15:47.395Z,0.70
2023-01-28T19:18:16.625Z,0.37
2023-01-28T19:20:46.104Z,0.30
2023-01-28T19:23:15.510Z,0.86
2023-01-28T19:25:44.409Z,0.64
2023-01-28T19:28:13.592Z,1.02
2023-01-28T19:30:46.113Z,0.75
2023-01-28T19:33:15.316Z,0.78
2023-01-28T19:35:45.892Z,0.81
2023-01-28T19:38:15.107Z,0.73
2023-01-28T19:40:43.754Z,0.55
2023-01-28T19:43:13.002Z,0.41
2023-01-28T19:45:43.559Z,-0.10
2023-01-28T19:48:12.755Z,0.43
2023-01-28T19:50:41.795Z,0.56
2023-01-28T19:53:10.813Z,-0.07
2023-01-28T19:55:39.973Z,0.09
2023-01-28T19:58:09.291Z,0.11
2023-01-28T20:00:38.501Z,0.26
2023-01-28T20:03:09.564Z,0.32
2023-01-28T20:05:39.275Z,0.48
2023-01-28T20:08:08.487Z,-0.29
2023-01-28T20:10:37.325Z,0.06
2023-01-28T20:13:07.456Z,0.23
2023-01-28T20:15:36.255Z,0.57
2023-01-28T20:18:05.594Z,-0.12
2023-01-28T20:20:36.285Z,0.30
2023-01-28T20:23:06.638Z,0.47
2023-01-28T20:25:35.375Z,0.63
2023-01-28T20:28:04.550Z,0.64
2023-01-28T20:30:33.730Z,0.68
2023-01-28T20:33:02.861Z,0.64
2023-01-28T20:35:31.947Z,0.46
2023-01-28T20:38:04.272Z,0.39
2023-01-28T20:40:33.167Z,0.60
2023-01-28T20:43:02.362Z,0.16
2023-01-28T20:45:32.743Z,0.41
2023-01-28T20:48:01.565Z,0.65
2023-01-28T20:50:30.826Z,0.18
2023-01-28T20:53:01.403Z,0.18
2023-01-28T20:55:30.533Z,0.42
2023-01-28T20:57:59.797Z,0.32
2023-01-28T21:00:28.906Z,0.35
2023-01-28T21:02:58.287Z,0.43
2023-01-28T21:05:27.335Z,0.36
2023-01-28T21:07:56.083Z,0.44
2023-01-28T21:10:26.707Z,0.26
2023-01-28T21:12:56.141Z,0.51
2023-01-28T21:15:25.209Z,0.06
2023-01-28T21:17:54.370Z,0.29
2023-01-28T21:20:23.440Z,0.30
2023-01-28T21:22:52.515Z,0.53
2023-01-28T21:25:21.885Z,0.38
2023-01-28T21:27:52.384Z,0.50
2023-01-28T21:30:21.755Z,0.55
2023-01-28T21:32:50.807Z,0.31
2023-01-28T21:35:20.997Z,0.52
2023-01-28T21:37:49.736Z,0.53
2023-01-28T21:40:19.433Z,0.56
2023-01-28T21:42:48.695Z,0.32
2023-01-28T21:45:19.291Z,0.44
2023-01-28T21:47:48.562Z,0.42
2023-01-28T21:50:18.267Z,0.71
2023-01-28T21:52:49.456Z,0.72
2023-01-28T21:55:19.168Z,0.41
2023-01-28T21:57:48.387Z,-0.38
2023-01-28T22:00:19.158Z,0.20
2023-01-28T22:02:48.486Z,0.10
2023-01-28T22:05:17.827Z,-0.13
2023-01-28T22:07:46.478Z,0.05
2023-01-28T22:10:16.322Z,0.18
2023-01-28T22:12:45.721Z,-0.16
2023-01-28T22:15:15.029Z,-0.28
2023-01-28T22:17:45.711Z,-0.03
2023-01-28T22:20:15.349Z,-0.22
2023-01-28T22:22:44.246Z,-0.06
2023-01-28T22:25:13.381Z,-0.03
2023-01-28T22:27:42.446Z,-0.10
2023-01-28T22:30:12.899Z,-0.05
2023-01-28T22:32:42.076Z,-0.02
2023-01-28T22:35:12.712Z,-0.28
2023-01-28T22:37:41.998Z,-0.53
2023-01-28T22:40:12.215Z,-0.17
2023-01-28T22:42:40.915Z,-0.08
2023-01-28T22:45:11.298Z,-0.04
2023-01-28T22:47:40.390Z,-0.26
2023-01-28T22:50:12.587Z,-0.26
2023-01-28T22:52:41.540Z,-0.41
2023-01-28T22:55:11.413Z,-0.30
2023-01-28T22:57:40.512Z,-0.24
2023-01-28T23:00:12.240Z,-0.52
2023-01-28T23:02:41.719Z,-0.57
2023-01-28T23:05:12.758Z,-0.08
2023-01-28T23:07:41.462Z,-0.22
2023-01-28T23:10:13.845Z,-0.08
2023-01-28T23:12:42.973Z,-0.09
2023-01-28T23:15:30.855Z,-0.02
2023-01-28T23:18:17.934Z,0.14
2023-01-28T23:21:05.949Z,-0.08
2023-01-28T23:23:52.233Z,0.03
2023-01-28T23:26:21.385Z,-0.47
2023-01-28T23:28:50.058Z,-0.28
2023-01-28T23:31:19.172Z,0.14
2023-01-28T23:33:48.252Z,0.12
2023-01-28T23:36:18.839Z,0.18
2023-01-28T23:38:47.850Z,0.17
2023-01-28T23:41:16.976Z,-0.17
2023-01-28T23:43:46.528Z,-0.57
2023-01-28T23:46:15.572Z,-0.27
2023-01-28T23:48:44.700Z,-1.08
2023-01-28T23:51:13.755Z,-0.69
2023-01-28T23:53:44.261Z,-0.92
2023-01-28T23:56:13.694Z,-0.75
2023-01-28T23:58:44.072Z,-0.77
